sensor_id;sensor_type;location;lat;lon;timestamp;temperature;humidity
48488;DHT22;34289;48.572;13.378;2023-07-22T00:00:06;16.20;99.90
48488;DHT22;34289;48.572;13.378;2023-07-22T00:02:37;16.20;99.90
48488;DHT22;34289;48.572;13.378;2023-07-22T00:05:05;16.30;99.90
48488;DHT22;34289;48.572;13.378;2023-07-22T00:07:32;16.30;99.90
48488;DHT22;34289;48.572;13.378;2023-07-22T00:10:00;16.30;99.90
48488;DHT22;34289;48.572;13.378;2023-07-22T00:12:28;16.20;99.90
48488;DHT22;34289;48.572;13.378;2023-07-22T00:14:57;16.20;99.90
48488;DHT22;34289;48.572;13.378;2023-07-22T00:17:24;16.10;99.90
48488;DHT22;34289;48.572;13.378;2023-07-22T00:19:51;16.10;99.90
48488;DHT22;34289;48.572;13.378;2023-07-22T00:22:18;16.50;99.90
48488;DHT22;34289;48.572;13.378;2023-07-22T00:24:46;16.00;99.90
48488;DHT22;34289;48.572;13.378;2023-07-22T00:27:14;15.90;99.90
48488;DHT22;34289;48.572;13.378;2023-07-22T00:29:42;15.90;99.90
48488;DHT22;34289;48.572;13.378;2023-07-22T00:32:09;15.90;99.90
48488;DHT22;34289;48.572;13.378;2023-07-22T00:34:37;15.80;99.90
48488;DHT22;34289;48.572;13.378;2023-07-22T00:37:04;15.80;99.90
48488;DHT22;34289;48.572;13.378;2023-07-22T00:39:31;15.80;99.90
48488;DHT22;34289;48.572;13.378;2023-07-22T00:41:58;15.80;99.90
48488;DHT22;34289;48.572;13.378;2023-07-22T00:44:26;15.70;99.90
48488;DHT22;34289;48.572;13.378;2023-07-22T00:46:54;15.60;99.90
48488;DHT22;34289;48.572;13.378;2023-07-22T00:49:24;15.50;99.90
48488;DHT22;34289;48.572;13.378;2023-07-22T00:51:52;15.40;99.90
48488;DHT22;34289;48.572;13.378;2023-07-22T00:54:19;14.30;99.90
48488;DHT22;34289;48.572;13.378;2023-07-22T00:56:47;15.20;99.90
48488;DHT22;34289;48.572;13.378;2023-07-22T00:59:14;15.20;99.90
48488;DHT22;34289;48.572;13.378;2023-07-22T01:01:42;15.10;99.90
48488;DHT22;34289;48.572;13.378;2023-07-22T01:04:09;15.10;99.90
48488;DHT22;34289;48.572;13.378;2023-07-22T01:06:42;15.10;99.90
48488;DHT22;34289;48.572;13.378;2023-07-22T01:09:09;15.10;99.90
48488;DHT22;34289;48.572;13.378;2023-07-22T01:11:35;15.20;99.90
48488;DHT22;34289;48.572;13.378;2023-07-22T01:14:00;15.10;99.90
48488;DHT22;34289;48.572;13.378;2023-07-22T01:16:27;15.10;99.90
48488;DHT22;34289;48.572;13.378;2023-07-22T01:18:54;15.00;99.90
48488;DHT22;34289;48.572;13.378;2023-07-22T01:21:23;15.00;99.90
48488;DHT22;34289;48.572;13.378;2023-07-22T01:23:49;14.90;99.90
48488;DHT22;34289;48.572;13.378;2023-07-22T01:26:15;14.90;99.90
48488;DHT22;34289;48.572;13.378;2023-07-22T01:28:41;14.70;99.90
48488;DHT22;34289;48.572;13.378;2023-07-22T01:31:07;14.50;99.90
48488;DHT22;34289;48.572;13.378;2023-07-22T01:33:32;14.40;99.90
48488;DHT22;34289;48.572;13.378;2023-07-22T01:35:59;14.20;99.90
48488;DHT22;34289;48.572;13.378;2023-07-22T01:38:25;14.30;99.90
48488;DHT22;34289;48.572;13.378;2023-07-22T01:40:50;14.30;99.90
48488;DHT22;34289;48.572;13.378;2023-07-22T01:43:16;14.20;99.90
48488;DHT22;34289;48.572;13.378;2023-07-22T01:45:42;14.30;99.90
48488;DHT22;34289;48.572;13.378;2023-07-22T01:48:08;14.30;99.90
48488;DHT22;34289;48.572;13.378;2023-07-22T01:50:33;14.20;99.90
48488;DHT22;34289;48.572;13.378;2023-07-22T01:52:59;14.20;99.90
48488;DHT22;34289;48.572;13.378;2023-07-22T01:55:25;14.30;99.90
48488;DHT22;34289;48.572;13.378;2023-07-22T01:57:51;14.10;99.90
48488;DHT22;34289;48.572;13.378;2023-07-22T02:00:16;14.20;99.90
48488;DHT22;34289;48.572;13.378;2023-07-22T02:02:42;14.10;99.90
48488;DHT22;34289;48.572;13.378;2023-07-22T02:05:08;14.00;99.90
48488;DHT22;34289;48.572;13.378;2023-07-22T02:07:37;14.10;99.90
48488;DHT22;34289;48.572;13.378;2023-07-22T02:10:03;14.10;99.90
48488;DHT22;34289;48.572;13.378;2023-07-22T02:12:29;14.00;99.90
48488;DHT22;34289;48.572;13.378;2023-07-22T02:14:55;14.00;99.90
48488;DHT22;34289;48.572;13.378;2023-07-22T02:17:21;14.10;99.90
48488;DHT22;34289;48.572;13.378;2023-07-22T02:19:46;14.10;99.90
48488;DHT22;34289;48.572;13.378;2023-07-22T02:22:12;13.80;99.90
48488;DHT22;34289;48.572;13.378;2023-07-22T02:24:38;13.80;99.90
48488;DHT22;34289;48.572;13.378;2023-07-22T02:27:04;13.90;99.90
48488;DHT22;34289;48.572;13.378;2023-07-22T02:29:30;13.50;99.90
48488;DHT22;34289;48.572;13.378;2023-07-22T02:31:58;13.50;99.90
48488;DHT22;34289;48.572;13.378;2023-07-22T02:34:24;13.50;99.90
48488;DHT22;34289;48.572;13.378;2023-07-22T02:36:49;13.60;99.90
48488;DHT22;34289;48.572;13.378;2023-07-22T02:39:15;13.30;99.90
48488;DHT22;34289;48.572;13.378;2023-07-22T02:41:41;13.30;99.90
48488;DHT22;34289;48.572;13.378;2023-07-22T02:44:06;13.30;99.90
48488;DHT22;34289;48.572;13.378;2023-07-22T02:46:32;13.10;99.90
48488;DHT22;34289;48.572;13.378;2023-07-22T02:48:58;13.00;99.90
48488;DHT22;34289;48.572;13.378;2023-07-22T02:51:24;13.10;99.90
48488;DHT22;34289;48.572;13.378;2023-07-22T02:53:50;13.30;99.90
48488;DHT22;34289;48.572;13.378;2023-07-22T02:56:15;13.20;99.90
48488;DHT22;34289;48.572;13.378;2023-07-22T02:58:41;13.30;99.90
48488;DHT22;34289;48.572;13.378;2023-07-22T03:01:09;13.10;99.90
48488;DHT22;34289;48.572;13.378;2023-07-22T03:03:36;13.10;99.90
48488;DHT22;34289;48.572;13.378;2023-07-22T03:06:03;13.20;99.90
48488;DHT22;34289;48.572;13.378;2023-07-22T03:08:29;13.20;99.90
48488;DHT22;34289;48.572;13.378;2023-07-22T03:10:55;12.50;99.90
48488;DHT22;34289;48.572;13.378;2023-07-22T03:13:21;12.30;99.90
48488;DHT22;34289;48.572;13.378;2023-07-22T03:15:47;12.30;99.90
48488;DHT22;34289;48.572;13.378;2023-07-22T03:18:12;12.10;99.90
48488;DHT22;34289;48.572;13.378;2023-07-22T03:20:39;12.10;99.90
48488;DHT22;34289;48.572;13.378;2023-07-22T03:23:05;12.40;99.90
48488;DHT22;34289;48.572;13.378;2023-07-22T03:25:32;12.40;99.90
48488;DHT22;34289;48.572;13.378;2023-07-22T03:28:07;12.60;99.90
48488;DHT22;34289;48.572;13.378;2023-07-22T03:30:33;12.70;99.90
48488;DHT22;34289;48.572;13.378;2023-07-22T03:32:59;12.60;99.90
48488;DHT22;34289;48.572;13.378;2023-07-22T03:35:26;12.70;99.90
48488;DHT22;34289;48.572;13.378;2023-07-22T03:37:52;12.60;99.90
48488;DHT22;34289;48.572;13.378;2023-07-22T03:40:18;12.40;99.90
48488;DHT22;34289;48.572;13.378;2023-07-22T03:42:49;12.50;99.90
48488;DHT22;34289;48.572;13.378;2023-07-22T03:45:15;12.60;99.90
48488;DHT22;34289;48.572;13.378;2023-07-22T03:47:41;12.70;99.90
48488;DHT22;34289;48.572;13.378;2023-07-22T03:50:07;12.60;99.90
48488;DHT22;34289;48.572;13.378;2023-07-22T03:52:33;12.60;99.90
48488;DHT22;34289;48.572;13.378;2023-07-22T03:54:59;12.60;99.90
48488;DHT22;34289;48.572;13.378;2023-07-22T03:57:28;12.60;99.90
48488;DHT22;34289;48.572;13.378;2023-07-22T03:59:54;12.60;99.90
48488;DHT22;34289;48.572;13.378;2023-07-22T04:02:20;12.90;99.90
48488;DHT22;34289;48.572;13.378;2023-07-22T04:04:46;12.60;99.90
48488;DHT22;34289;48.572;13.378;2023-07-22T04:07:12;12.80;99.90
48488;DHT22;34289;48.572;13.378;2023-07-22T04:09:38;12.90;99.90
48488;DHT22;34289;48.572;13.378;2023-07-22T04:12:04;12.70;99.90
48488;DHT22;34289;48.572;13.378;2023-07-22T04:14:30;12.80;99.90
48488;DHT22;34289;48.572;13.378;2023-07-22T04:16:55;12.80;99.90
48488;DHT22;34289;48.572;13.378;2023-07-22T04:19:21;13.10;99.90
48488;DHT22;34289;48.572;13.378;2023-07-22T04:21:46;13.30;99.90
48488;DHT22;34289;48.572;13.378;2023-07-22T04:24:12;13.50;99.90
48488;DHT22;34289;48.572;13.378;2023-07-22T04:26:37;13.60;99.90
48488;DHT22;34289;48.572;13.378;2023-07-22T04:29:03;13.90;99.90
48488;DHT22;34289;48.572;13.378;2023-07-22T04:31:29;14.00;99.90
48488;DHT22;34289;48.572;13.378;2023-07-22T04:33:54;14.10;99.90
48488;DHT22;34289;48.572;13.378;2023-07-22T04:36:20;14.30;99.90
48488;DHT22;34289;48.572;13.378;2023-07-22T04:38:45;14.80;99.90
48488;DHT22;34289;48.572;13.378;2023-07-22T04:41:11;15.20;99.90
48488;DHT22;34289;48.572;13.378;2023-07-22T04:43:37;15.70;99.90
48488;DHT22;34289;48.572;13.378;2023-07-22T04:46:02;16.10;99.90
48488;DHT22;34289;48.572;13.378;2023-07-22T04:48:29;16.90;99.90
48488;DHT22;34289;48.572;13.378;2023-07-22T04:50:54;18.20;99.90
48488;DHT22;34289;48.572;13.378;2023-07-22T04:53:21;19.40;99.90
48488;DHT22;34289;48.572;13.378;2023-07-22T04:55:46;20.90;99.90
48488;DHT22;34289;48.572;13.378;2023-07-22T04:58:12;21.60;99.90
48488;DHT22;34289;48.572;13.378;2023-07-22T05:00:38;22.70;99.90
48488;DHT22;34289;48.572;13.378;2023-07-22T05:03:04;23.60;99.90
48488;DHT22;34289;48.572;13.378;2023-07-22T05:05:30;23.60;99.90
48488;DHT22;34289;48.572;13.378;2023-07-22T05:07:55;23.70;99.90
48488;DHT22;34289;48.572;13.378;2023-07-22T05:10:21;24.50;99.90
48488;DHT22;34289;48.572;13.378;2023-07-22T05:12:47;25.30;99.90
48488;DHT22;34289;48.572;13.378;2023-07-22T05:15:13;25.40;99.80
48488;DHT22;34289;48.572;13.378;2023-07-22T05:17:39;25.50;99.70
48488;DHT22;34289;48.572;13.378;2023-07-22T05:20:05;25.90;99.20
48488;DHT22;34289;48.572;13.378;2023-07-22T05:22:38;26.00;99.00
48488;DHT22;34289;48.572;13.378;2023-07-22T05:25:05;26.70;98.30
48488;DHT22;34289;48.572;13.378;2023-07-22T05:27:31;26.30;98.50
48488;DHT22;34289;48.572;13.378;2023-07-22T05:29:57;26.40;98.60
48488;DHT22;34289;48.572;13.378;2023-07-22T05:32:23;26.70;98.50
48488;DHT22;34289;48.572;13.378;2023-07-22T05:34:48;27.60;97.90
48488;DHT22;34289;48.572;13.378;2023-07-22T05:37:14;27.70;97.90
48488;DHT22;34289;48.572;13.378;2023-07-22T05:39:39;28.50;96.90
48488;DHT22;34289;48.572;13.378;2023-07-22T05:42:06;28.50;96.90
48488;DHT22;34289;48.572;13.378;2023-07-22T05:44:31;28.20;97.20
48488;DHT22;34289;48.572;13.378;2023-07-22T05:46:57;27.70;97.60
48488;DHT22;34289;48.572;13.378;2023-07-22T05:49:23;27.60;97.80
48488;DHT22;34289;48.572;13.378;2023-07-22T05:51:49;29.00;96.30
48488;DHT22;34289;48.572;13.378;2023-07-22T05:54:15;29.20;95.90
48488;DHT22;34289;48.572;13.378;2023-07-22T05:56:40;29.80;95.30
48488;DHT22;34289;48.572;13.378;2023-07-22T05:59:06;29.20;95.20
48488;DHT22;34289;48.572;13.378;2023-07-22T06:01:32;29.00;95.70
48488;DHT22;34289;48.572;13.378;2023-07-22T06:03:58;29.90;95.10
48488;DHT22;34289;48.572;13.378;2023-07-22T06:06:24;30.40;94.60
48488;DHT22;34289;48.572;13.378;2023-07-22T06:08:50;30.90;93.90
48488;DHT22;34289;48.572;13.378;2023-07-22T06:11:16;31.40;93.20
48488;DHT22;34289;48.572;13.378;2023-07-22T06:13:42;31.60;91.90
48488;DHT22;34289;48.572;13.378;2023-07-22T06:16:08;30.30;93.10
48488;DHT22;34289;48.572;13.378;2023-07-22T06:18:34;28.40;93.90
48488;DHT22;34289;48.572;13.378;2023-07-22T06:20:59;26.50;95.80
48488;DHT22;34289;48.572;13.378;2023-07-22T06:23:25;24.60;98.10
48488;DHT22;34289;48.572;13.378;2023-07-22T06:25:50;23.40;99.70
48488;DHT22;34289;48.572;13.378;2023-07-22T06:28:17;22.50;99.90
48488;DHT22;34289;48.572;13.378;2023-07-22T06:30:43;22.20;99.90
48488;DHT22;34289;48.572;13.378;2023-07-22T06:33:09;21.70;99.90
48488;DHT22;34289;48.572;13.378;2023-07-22T06:35:35;21.50;99.90
48488;DHT22;34289;48.572;13.378;2023-07-22T06:38:00;21.50;99.90
48488;DHT22;34289;48.572;13.378;2023-07-22T06:40:26;21.00;99.90
48488;DHT22;34289;48.572;13.378;2023-07-22T06:42:51;21.00;99.90
48488;DHT22;34289;48.572;13.378;2023-07-22T06:45:17;20.80;99.90
48488;DHT22;34289;48.572;13.378;2023-07-22T06:47:43;20.40;99.90
48488;DHT22;34289;48.572;13.378;2023-07-22T06:50:09;20.10;99.90
48488;DHT22;34289;48.572;13.378;2023-07-22T06:52:35;19.90;99.90
48488;DHT22;34289;48.572;13.378;2023-07-22T06:55:00;19.90;99.90
48488;DHT22;34289;48.572;13.378;2023-07-22T06:57:26;19.90;99.90
48488;DHT22;34289;48.572;13.378;2023-07-22T06:59:55;20.20;99.90
48488;DHT22;34289;48.572;13.378;2023-07-22T07:02:21;20.00;99.90
48488;DHT22;34289;48.572;13.378;2023-07-22T07:04:47;20.10;99.90
48488;DHT22;34289;48.572;13.378;2023-07-22T07:07:13;20.50;99.90
48488;DHT22;34289;48.572;13.378;2023-07-22T07:09:39;20.50;99.90
48488;DHT22;34289;48.572;13.378;2023-07-22T07:12:06;20.70;99.90
48488;DHT22;34289;48.572;13.378;2023-07-22T07:14:33;20.90;99.90
48488;DHT22;34289;48.572;13.378;2023-07-22T07:16:59;21.10;99.90
48488;DHT22;34289;48.572;13.378;2023-07-22T07:19:25;21.40;99.90
48488;DHT22;34289;48.572;13.378;2023-07-22T07:21:51;21.40;99.90
48488;DHT22;34289;48.572;13.378;2023-07-22T07:24:17;21.20;99.90
48488;DHT22;34289;48.572;13.378;2023-07-22T07:26:42;21.00;99.90
48488;DHT22;34289;48.572;13.378;2023-07-22T07:29:08;20.80;99.90
48488;DHT22;34289;48.572;13.378;2023-07-22T07:31:34;21.00;99.90
48488;DHT22;34289;48.572;13.378;2023-07-22T07:33:59;21.20;99.90
48488;DHT22;34289;48.572;13.378;2023-07-22T07:36:25;21.10;99.90
48488;DHT22;34289;48.572;13.378;2023-07-22T07:38:51;21.00;99.90
48488;DHT22;34289;48.572;13.378;2023-07-22T07:41:16;21.10;99.90
48488;DHT22;34289;48.572;13.378;2023-07-22T07:43:42;21.10;99.90
48488;DHT22;34289;48.572;13.378;2023-07-22T07:48:44;20.80;99.90
48488;DHT22;34289;48.572;13.378;2023-07-22T07:51:11;20.70;99.90
48488;DHT22;34289;48.572;13.378;2023-07-22T07:53:37;20.80;99.90
48488;DHT22;34289;48.572;13.378;2023-07-22T07:56:03;21.00;99.90
48488;DHT22;34289;48.572;13.378;2023-07-22T07:58:28;21.20;99.90
48488;DHT22;34289;48.572;13.378;2023-07-22T08:00:54;21.50;99.90
48488;DHT22;34289;48.572;13.378;2023-07-22T08:03:20;21.80;99.90
48488;DHT22;34289;48.572;13.378;2023-07-22T08:05:46;22.10;99.90
48488;DHT22;34289;48.572;13.378;2023-07-22T08:08:11;22.40;99.90
48488;DHT22;34289;48.572;13.378;2023-07-22T08:10:37;22.50;99.90
48488;DHT22;34289;48.572;13.378;2023-07-22T08:13:02;22.60;99.90
48488;DHT22;34289;48.572;13.378;2023-07-22T08:15:28;22.80;99.90
48488;DHT22;34289;48.572;13.378;2023-07-22T08:17:54;22.90;99.90
48488;DHT22;34289;48.572;13.378;2023-07-22T08:20:19;22.60;99.90
48488;DHT22;34289;48.572;13.378;2023-07-22T08:22:46;22.40;99.90
48488;DHT22;34289;48.572;13.378;2023-07-22T08:25:12;22.40;99.90
48488;DHT22;34289;48.572;13.378;2023-07-22T08:27:37;22.80;99.90
48488;DHT22;34289;48.572;13.378;2023-07-22T08:30:03;23.00;99.90
48488;DHT22;34289;48.572;13.378;2023-07-22T08:32:29;23.00;99.90
48488;DHT22;34289;48.572;13.378;2023-07-22T08:34:54;23.00;99.90
48488;DHT22;34289;48.572;13.378;2023-07-22T08:37:20;23.00;99.90
48488;DHT22;34289;48.572;13.378;2023-07-22T08:39:46;22.90;99.90
48488;DHT22;34289;48.572;13.378;2023-07-22T08:42:11;22.80;99.90
48488;DHT22;34289;48.572;13.378;2023-07-22T08:44:43;22.90;99.90
48488;DHT22;34289;48.572;13.378;2023-07-22T08:47:10;23.20;99.90
48488;DHT22;34289;48.572;13.378;2023-07-22T08:49:42;23.50;99.90
48488;DHT22;34289;48.572;13.378;2023-07-22T08:52:10;23.80;99.90
48488;DHT22;34289;48.572;13.378;2023-07-22T08:54:36;24.20;99.90
48488;DHT22;34289;48.572;13.378;2023-07-22T08:57:03;24.60;99.60
48488;DHT22;34289;48.572;13.378;2023-07-22T08:59:29;24.70;98.10
48488;DHT22;34289;48.572;13.378;2023-07-22T09:01:54;24.20;97.00
48488;DHT22;34289;48.572;13.378;2023-07-22T09:04:20;24.00;97.60
48488;DHT22;34289;48.572;13.378;2023-07-22T09:06:46;23.80;97.80
48488;DHT22;34289;48.572;13.378;2023-07-22T09:09:11;23.70;98.60
48488;DHT22;34289;48.572;13.378;2023-07-22T09:11:37;23.90;99.30
48488;DHT22;34289;48.572;13.378;2023-07-22T09:14:04;23.90;97.60
48488;DHT22;34289;48.572;13.378;2023-07-22T09:16:30;23.80;97.60
48488;DHT22;34289;48.572;13.378;2023-07-22T09:18:57;23.80;97.90
48488;DHT22;34289;48.572;13.378;2023-07-22T09:21:23;24.00;97.50
48488;DHT22;34289;48.572;13.378;2023-07-22T09:23:49;24.20;97.80
48488;DHT22;34289;48.572;13.378;2023-07-22T09:26:16;24.40;96.70
48488;DHT22;34289;48.572;13.378;2023-07-22T09:28:55;24.60;97.80
48488;DHT22;34289;48.572;13.378;2023-07-22T09:31:22;24.80;97.50
48488;DHT22;34289;48.572;13.378;2023-07-22T09:33:49;25.00;97.40
48488;DHT22;34289;48.572;13.378;2023-07-22T09:36:16;25.20;97.80
48488;DHT22;34289;48.572;13.378;2023-07-22T09:38:42;25.30;97.10
48488;DHT22;34289;48.572;13.378;2023-07-22T09:41:08;25.40;96.80
48488;DHT22;34289;48.572;13.378;2023-07-22T09:43:38;25.50;96.20
48488;DHT22;34289;48.572;13.378;2023-07-22T09:46:10;25.20;95.60
48488;DHT22;34289;48.572;13.378;2023-07-22T09:48:43;24.90;95.90
48488;DHT22;34289;48.572;13.378;2023-07-22T09:51:16;25.10;96.90
48488;DHT22;34289;48.572;13.378;2023-07-22T09:53:46;25.00;95.70
48488;DHT22;34289;48.572;13.378;2023-07-22T09:56:12;24.70;96.80
48488;DHT22;34289;48.572;13.378;2023-07-22T09:58:39;24.60;96.90
48488;DHT22;34289;48.572;13.378;2023-07-22T10:01:05;24.60;97.30
48488;DHT22;34289;48.572;13.378;2023-07-22T10:03:33;24.50;96.20
48488;DHT22;34289;48.572;13.378;2023-07-22T10:06:03;24.40;96.40
48488;DHT22;34289;48.572;13.378;2023-07-22T10:08:34;24.20;96.10
48488;DHT22;34289;48.572;13.378;2023-07-22T10:11:03;24.10;97.00
48488;DHT22;34289;48.572;13.378;2023-07-22T10:13:29;24.10;96.40
48488;DHT22;34289;48.572;13.378;2023-07-22T10:15:55;24.30;96.10
48488;DHT22;34289;48.572;13.378;2023-07-22T10:18:21;24.50;96.30
48488;DHT22;34289;48.572;13.378;2023-07-22T10:20:48;24.70;96.30
48488;DHT22;34289;48.572;13.378;2023-07-22T10:23:15;24.90;96.30
48488;DHT22;34289;48.572;13.378;2023-07-22T10:25:42;25.00;95.00
48488;DHT22;34289;48.572;13.378;2023-07-22T10:28:08;24.90;95.30
48488;DHT22;34289;48.572;13.378;2023-07-22T10:30:34;25.00;96.40
48488;DHT22;34289;48.572;13.378;2023-07-22T10:33:00;25.40;95.20
48488;DHT22;34289;48.572;13.378;2023-07-22T10:38:13;25.50;94.90
48488;DHT22;34289;48.572;13.378;2023-07-22T10:43:18;25.50;94.70
48488;DHT22;34289;48.572;13.378;2023-07-22T10:45:50;25.30;94.80
48488;DHT22;34289;48.572;13.378;2023-07-22T10:48:17;24.90;94.40
48488;DHT22;34289;48.572;13.378;2023-07-22T10:50:55;24.50;93.80
48488;DHT22;34289;48.572;13.378;2023-07-22T11:14:46;24.70;94.20
48488;DHT22;34289;48.572;13.378;2023-07-22T11:17:12;24.70;94.80
48488;DHT22;34289;48.572;13.378;2023-07-22T11:19:38;24.60;94.40
48488;DHT22;34289;48.572;13.378;2023-07-22T11:22:05;24.70;95.50
48488;DHT22;34289;48.572;13.378;2023-07-22T11:24:33;25.00;94.10
48488;DHT22;34289;48.572;13.378;2023-07-22T11:27:06;25.20;93.90
48488;DHT22;34289;48.572;13.378;2023-07-22T11:29:32;25.40;93.80
48488;DHT22;34289;48.572;13.378;2023-07-22T11:31:58;25.70;94.10
48488;DHT22;34289;48.572;13.378;2023-07-22T11:34:24;26.10;93.10
48488;DHT22;34289;48.572;13.378;2023-07-22T11:36:52;26.20;93.20
48488;DHT22;34289;48.572;13.378;2023-07-22T11:39:23;25.10;92.20
48488;DHT22;34289;48.572;13.378;2023-07-22T11:41:50;26.50;92.60
48488;DHT22;34289;48.572;13.378;2023-07-22T11:44:26;26.70;92.00
48488;DHT22;34289;48.572;13.378;2023-07-22T11:49:31;26.90;92.20
48488;DHT22;34289;48.572;13.378;2023-07-22T11:52:02;26.50;91.10
48488;DHT22;34289;48.572;13.378;2023-07-22T11:54:29;26.50;91.70
48488;DHT22;34289;48.572;13.378;2023-07-22T11:56:56;26.70;92.00
48488;DHT22;34289;48.572;13.378;2023-07-22T11:59:35;26.90;91.30
48488;DHT22;34289;48.572;13.378;2023-07-22T12:02:02;27.10;90.60
48488;DHT22;34289;48.572;13.378;2023-07-22T12:04:30;27.30;90.20
48488;DHT22;34289;48.572;13.378;2023-07-22T12:06:56;27.40;90.10
48488;DHT22;34289;48.572;13.378;2023-07-22T12:09:23;27.50;90.70
48488;DHT22;34289;48.572;13.378;2023-07-22T12:11:58;27.60;91.60
48488;DHT22;34289;48.572;13.378;2023-07-22T12:14:33;27.60;92.00
48488;DHT22;34289;48.572;13.378;2023-07-22T12:17:00;27.10;91.30
48488;DHT22;34289;48.572;13.378;2023-07-22T12:19:28;26.30;91.40
48488;DHT22;34289;48.572;13.378;2023-07-22T12:21:54;26.00;91.70
48488;DHT22;34289;48.572;13.378;2023-07-22T12:24:20;25.60;91.30
48488;DHT22;34289;48.572;13.378;2023-07-22T12:26:45;25.50;92.50
48488;DHT22;34289;48.572;13.378;2023-07-22T12:29:11;25.70;91.90
48488;DHT22;34289;48.572;13.378;2023-07-22T12:31:37;25.70;92.60
48488;DHT22;34289;48.572;13.378;2023-07-22T12:34:02;25.80;92.60
48488;DHT22;34289;48.572;13.378;2023-07-22T12:36:28;26.10;91.60
48488;DHT22;34289;48.572;13.378;2023-07-22T12:38:53;25.90;92.20
48488;DHT22;34289;48.572;13.378;2023-07-22T12:41:19;26.10;92.20
48488;DHT22;34289;48.572;13.378;2023-07-22T12:43:44;26.30;92.00
48488;DHT22;34289;48.572;13.378;2023-07-22T12:46:10;26.50;92.00
48488;DHT22;34289;48.572;13.378;2023-07-22T12:48:36;26.40;91.70
48488;DHT22;34289;48.572;13.378;2023-07-22T12:51:01;26.40;91.60
48488;DHT22;34289;48.572;13.378;2023-07-22T12:53:28;26.40;91.80
48488;DHT22;34289;48.572;13.378;2023-07-22T12:55:54;26.30;91.50
48488;DHT22;34289;48.572;13.378;2023-07-22T12:58:19;26.30;91.90
48488;DHT22;34289;48.572;13.378;2023-07-22T13:00:46;26.30;90.90
48488;DHT22;34289;48.572;13.378;2023-07-22T13:03:12;26.50;91.20
48488;DHT22;34289;48.572;13.378;2023-07-22T13:05:37;26.50;91.20
48488;DHT22;34289;48.572;13.378;2023-07-22T13:08:03;26.40;90.60
48488;DHT22;34289;48.572;13.378;2023-07-22T13:10:29;26.50;91.20
48488;DHT22;34289;48.572;13.378;2023-07-22T13:12:55;26.50;90.90
48488;DHT22;34289;48.572;13.378;2023-07-22T13:15:21;26.30;90.30
48488;DHT22;34289;48.572;13.378;2023-07-22T13:17:46;26.20;91.40
48488;DHT22;34289;48.572;13.378;2023-07-22T13:20:12;26.30;90.70
48488;DHT22;34289;48.572;13.378;2023-07-22T13:22:38;26.30;90.40
48488;DHT22;34289;48.572;13.378;2023-07-22T13:25:05;26.50;89.90
48488;DHT22;34289;48.572;13.378;2023-07-22T13:27:30;26.60;89.80
48488;DHT22;34289;48.572;13.378;2023-07-22T13:29:56;26.70;89.40
48488;DHT22;34289;48.572;13.378;2023-07-22T13:32:23;27.00;89.30
48488;DHT22;34289;48.572;13.378;2023-07-22T13:34:48;27.00;88.20
48488;DHT22;34289;48.572;13.378;2023-07-22T13:37:14;27.20;88.50
48488;DHT22;34289;48.572;13.378;2023-07-22T13:39:39;27.60;89.00
48488;DHT22;34289;48.572;13.378;2023-07-22T13:42:05;27.90;89.20
48488;DHT22;34289;48.572;13.378;2023-07-22T13:44:31;27.90;87.70
48488;DHT22;34289;48.572;13.378;2023-07-22T13:46:56;28.00;87.50
48488;DHT22;34289;48.572;13.378;2023-07-22T13:49:22;27.60;85.60
48488;DHT22;34289;48.572;13.378;2023-07-22T13:51:47;26.50;86.60
48488;DHT22;34289;48.572;13.378;2023-07-22T13:54:13;26.30;88.00
48488;DHT22;34289;48.572;13.378;2023-07-22T13:56:39;26.20;88.20
48488;DHT22;34289;48.572;13.378;2023-07-22T13:59:04;26.00;88.20
48488;DHT22;34289;48.572;13.378;2023-07-22T14:01:33;25.80;91.00
48488;DHT22;34289;48.572;13.378;2023-07-22T14:03:58;25.90;89.80
48488;DHT22;34289;48.572;13.378;2023-07-22T14:06:24;26.00;91.20
48488;DHT22;34289;48.572;13.378;2023-07-22T14:08:50;26.10;90.30
48488;DHT22;34289;48.572;13.378;2023-07-22T14:11:15;26.20;91.50
48488;DHT22;34289;48.572;13.378;2023-07-22T14:13:41;26.20;89.30
48488;DHT22;34289;48.572;13.378;2023-07-22T14:16:06;25.90;90.00
48488;DHT22;34289;48.572;13.378;2023-07-22T14:18:32;25.70;90.30
48488;DHT22;34289;48.572;13.378;2023-07-22T14:20:58;25.80;90.20
48488;DHT22;34289;48.572;13.378;2023-07-22T14:23:24;25.90;89.70
48488;DHT22;34289;48.572;13.378;2023-07-22T14:25:50;25.80;88.70
48488;DHT22;34289;48.572;13.378;2023-07-22T14:28:15;25.70;89.70
48488;DHT22;34289;48.572;13.378;2023-07-22T14:30:41;26.00;90.30
48488;DHT22;34289;48.572;13.378;2023-07-22T14:33:06;26.10;89.00
48488;DHT22;34289;48.572;13.378;2023-07-22T14:35:32;26.10;88.70
48488;DHT22;34289;48.572;13.378;2023-07-22T14:37:58;26.00;90.00
48488;DHT22;34289;48.572;13.378;2023-07-22T14:40:25;26.00;90.60
48488;DHT22;34289;48.572;13.378;2023-07-22T14:42:50;26.00;89.30
48488;DHT22;34289;48.572;13.378;2023-07-22T14:45:16;25.50;89.60
48488;DHT22;34289;48.572;13.378;2023-07-22T14:47:42;25.50;90.20
48488;DHT22;34289;48.572;13.378;2023-07-22T14:50:08;25.70;90.90
48488;DHT22;34289;48.572;13.378;2023-07-22T14:52:34;26.00;90.30
48488;DHT22;34289;48.572;13.378;2023-07-22T14:54:59;26.50;90.60
48488;DHT22;34289;48.572;13.378;2023-07-22T14:57:25;26.80;89.00
48488;DHT22;34289;48.572;13.378;2023-07-22T14:59:56;27.00;89.00
48488;DHT22;34289;48.572;13.378;2023-07-22T15:02:22;27.00;87.80
48488;DHT22;34289;48.572;13.378;2023-07-22T15:04:48;27.00;87.60
48488;DHT22;34289;48.572;13.378;2023-07-22T15:07:14;26.80;87.20
48488;DHT22;34289;48.572;13.378;2023-07-22T15:09:39;26.30;89.00
48488;DHT22;34289;48.572;13.378;2023-07-22T15:12:05;26.20;90.50
48488;DHT22;34289;48.572;13.378;2023-07-22T15:14:32;25.90;90.80
48488;DHT22;34289;48.572;13.378;2023-07-22T15:16:58;25.60;90.60
48488;DHT22;34289;48.572;13.378;2023-07-22T15:19:24;25.40;90.80
48488;DHT22;34289;48.572;13.378;2023-07-22T15:21:50;25.30;90.70
48488;DHT22;34289;48.572;13.378;2023-07-22T15:24:15;25.20;91.00
48488;DHT22;34289;48.572;13.378;2023-07-22T15:26:41;25.30;91.40
48488;DHT22;34289;48.572;13.378;2023-07-22T15:29:07;25.50;90.60
48488;DHT22;34289;48.572;13.378;2023-07-22T15:31:32;25.40;89.90
48488;DHT22;34289;48.572;13.378;2023-07-22T15:33:58;25.20;90.40
48488;DHT22;34289;48.572;13.378;2023-07-22T15:36:24;25.40;90.70
48488;DHT22;34289;48.572;13.378;2023-07-22T15:38:49;25.30;90.20
48488;DHT22;34289;48.572;13.378;2023-07-22T15:41:15;25.20;91.10